LHX weather

La Junta Municipal Airport
La Junta, Colorado, United States

Public forecast

Using degrees Fahrenheit for public forecast. Weather courtesy of forecast.io.

Current aviation weather report (METAR) for La Junta Municipal Airport

Retrieved 2019/11/18 17:53 UTC (54 minutes ago):

KLHX 181753Z AUTO 00000KT 10SM CLR 17/M01 A3002 RMK AO2 SLP142 T01721006 10172 20000 50001

Closest aviation forecast (TAF) to La Junta Municipal Airport

Closest forecast is Pueblo Memorial Airport, 48.8 nm (90.4 km) WNW. Retrieved 2019/11/18 18:24 UTC (23 minutes ago):

TAF KPUB 181723Z 1818/1918 12007KT P6SM FEW250 FM190100 VRB05KT P6SM BKN200 FM190800 30007KT P6SM BKN200